sensor_id;sensor_type;location;lat;lon;timestamp;P1;durP1;ratioP1;P2;durP2;ratioP2
45326;SDS011;31062;49.678;24.560;2022-12-18T00:01:23;42.78;;;16.00;;
45326;SDS011;31062;49.678;24.560;2022-12-18T00:04:15;42.83;;;16.85;;
45326;SDS011;31062;49.678;24.560;2022-12-18T00:07:05;30.95;;;12.88;;
45326;SDS011;31062;49.678;24.560;2022-12-18T00:09:50;40.42;;;15.68;;
45326;SDS011;31062;49.678;24.560;2022-12-18T00:12:36;29.38;;;13.40;;
45326;SDS011;31062;49.678;24.560;2022-12-18T00:15:21;31.77;;;12.93;;
45326;SDS011;31062;49.678;24.560;2022-12-18T00:18:07;38.47;;;15.85;;
45326;SDS011;31062;49.678;24.560;2022-12-18T00:20:53;34.70;;;14.57;;
45326;SDS011;31062;49.678;24.560;2022-12-18T00:23:38;27.40;;;11.82;;
45326;SDS011;31062;49.678;24.560;2022-12-18T00:26:27;34.80;;;15.15;;
45326;SDS011;31062;49.678;24.560;2022-12-18T00:29:18;34.72;;;13.77;;
45326;SDS011;31062;49.678;24.560;2022-12-18T00:32:03;27.27;;;12.15;;
45326;SDS011;31062;49.678;24.560;2022-12-18T00:34:49;39.63;;;16.35;;
45326;SDS011;31062;49.678;24.560;2022-12-18T00:37:34;24.83;;;11.63;;
45326;SDS011;31062;49.678;24.560;2022-12-18T00:40:20;35.00;;;14.32;;
45326;SDS011;31062;49.678;24.560;2022-12-18T00:43:05;23.52;;;11.73;;
45326;SDS011;31062;49.678;24.560;2022-12-18T00:45:51;32.60;;;15.27;;
45326;SDS011;31062;49.678;24.560;2022-12-18T00:48:36;32.47;;;15.73;;
45326;SDS011;31062;49.678;24.560;2022-12-18T00:51:22;24.95;;;11.98;;
45326;SDS011;31062;49.678;24.560;2022-12-18T00:54:07;33.85;;;14.35;;
45326;SDS011;31062;49.678;24.560;2022-12-18T00:56:53;42.92;;;16.75;;
45326;SDS011;31062;49.678;24.560;2022-12-18T00:59:40;40.70;;;14.98;;
45326;SDS011;31062;49.678;24.560;2022-12-18T01:02:25;40.47;;;16.60;;
45326;SDS011;31062;49.678;24.560;2022-12-18T01:05:12;43.45;;;17.35;;
45326;SDS011;31062;49.678;24.560;2022-12-18T01:07:58;56.58;;;19.42;;
45326;SDS011;31062;49.678;24.560;2022-12-18T01:10:44;46.05;;;18.83;;
45326;SDS011;31062;49.678;24.560;2022-12-18T01:13:30;36.17;;;16.60;;
45326;SDS011;31062;49.678;24.560;2022-12-18T01:16:16;43.03;;;16.10;;
45326;SDS011;31062;49.678;24.560;2022-12-18T01:19:03;40.30;;;16.42;;
45326;SDS011;31062;49.678;24.560;2022-12-18T01:21:48;38.33;;;16.52;;
45326;SDS011;31062;49.678;24.560;2022-12-18T01:24:34;42.85;;;16.83;;
45326;SDS011;31062;49.678;24.560;2022-12-18T01:27:19;36.03;;;15.73;;
45326;SDS011;31062;49.678;24.560;2022-12-18T01:30:04;40.47;;;17.17;;
45326;SDS011;31062;49.678;24.560;2022-12-18T01:32:51;36.80;;;16.70;;
45326;SDS011;31062;49.678;24.560;2022-12-18T01:35:40;43.00;;;16.13;;
45326;SDS011;31062;49.678;24.560;2022-12-18T01:38:28;44.00;;;15.43;;
45326;SDS011;31062;49.678;24.560;2022-12-18T01:41:14;41.95;;;16.15;;
45326;SDS011;31062;49.678;24.560;2022-12-18T01:44:01;37.95;;;15.25;;
45326;SDS011;31062;49.678;24.560;2022-12-18T01:47:07;34.45;;;14.27;;
45326;SDS011;31062;49.678;24.560;2022-12-18T01:49:53;41.42;;;16.52;;
45326;SDS011;31062;49.678;24.560;2022-12-18T01:52:40;44.45;;;17.42;;
45326;SDS011;31062;49.678;24.560;2022-12-18T01:55:28;33.85;;;14.30;;
45326;SDS011;31062;49.678;24.560;2022-12-18T01:58:16;40.92;;;15.38;;
45326;SDS011;31062;49.678;24.560;2022-12-18T02:01:02;25.80;;;11.98;;
45326;SDS011;31062;49.678;24.560;2022-12-18T02:03:50;32.08;;;9.27;;
45326;SDS011;31062;49.678;24.560;2022-12-18T02:06:38;38.58;;;14.73;;
45326;SDS011;31062;49.678;24.560;2022-12-18T02:09:37;37.42;;;13.50;;
45326;SDS011;31062;49.678;24.560;2022-12-18T02:28:31;38.15;;;14.82;;
45326;SDS011;31062;49.678;24.560;2022-12-18T02:31:24;44.88;;;17.15;;
45326;SDS011;31062;49.678;24.560;2022-12-18T02:34:12;34.05;;;14.15;;
45326;SDS011;31062;49.678;24.560;2022-12-18T02:37:00;34.88;;;14.07;;
45326;SDS011;31062;49.678;24.560;2022-12-18T02:39:49;31.35;;;13.82;;
45326;SDS011;31062;49.678;24.560;2022-12-18T02:42:41;34.53;;;13.27;;
45326;SDS011;31062;49.678;24.560;2022-12-18T02:45:28;31.27;;;13.45;;
45326;SDS011;31062;49.678;24.560;2022-12-18T02:48:13;34.63;;;13.55;;
45326;SDS011;31062;49.678;24.560;2022-12-18T02:54:09;37.03;;;14.98;;
45326;SDS011;31062;49.678;24.560;2022-12-18T02:57:08;33.45;;;13.95;;
45326;SDS011;31062;49.678;24.560;2022-12-18T03:00:35;30.08;;;11.30;;
45326;SDS011;31062;49.678;24.560;2022-12-18T03:03:24;43.03;;;14.27;;
45326;SDS011;31062;49.678;24.560;2022-12-18T03:09:24;31.33;;;11.98;;
45326;SDS011;31062;49.678;24.560;2022-12-18T03:15:43;33.92;;;12.50;;
45326;SDS011;31062;49.678;24.560;2022-12-18T03:18:37;31.98;;;12.85;;
45326;SDS011;31062;49.678;24.560;2022-12-18T03:21:29;33.67;;;12.70;;
45326;SDS011;31062;49.678;24.560;2022-12-18T03:24:21;34.13;;;11.77;;
45326;SDS011;31062;49.678;24.560;2022-12-18T03:27:11;29.80;;;10.45;;
45326;SDS011;31062;49.678;24.560;2022-12-18T03:30:01;16.15;;;7.13;;
45326;SDS011;31062;49.678;24.560;2022-12-18T03:35:47;41.92;;;13.52;;
45326;SDS011;31062;49.678;24.560;2022-12-18T03:38:35;33.72;;;12.60;;
45326;SDS011;31062;49.678;24.560;2022-12-18T03:53:53;39.58;;;13.18;;
45326;SDS011;31062;49.678;24.560;2022-12-18T03:56:48;33.35;;;12.15;;
45326;SDS011;31062;49.678;24.560;2022-12-18T03:59:43;31.38;;;10.65;;
45326;SDS011;31062;49.678;24.560;2022-12-18T04:02:33;24.55;;;9.35;;
45326;SDS011;31062;49.678;24.560;2022-12-18T04:05:22;37.30;;;11.90;;
45326;SDS011;31062;49.678;24.560;2022-12-18T04:08:09;18.38;;;8.75;;
45326;SDS011;31062;49.678;24.560;2022-12-18T04:11:00;27.95;;;9.85;;
45326;SDS011;31062;49.678;24.560;2022-12-18T04:13:47;34.08;;;12.25;;
45326;SDS011;31062;49.678;24.560;2022-12-18T04:16:40;35.70;;;10.48;;
45326;SDS011;31062;49.678;24.560;2022-12-18T04:19:30;34.88;;;10.32;;
45326;SDS011;31062;49.678;24.560;2022-12-18T04:22:17;27.98;;;11.75;;
45326;SDS011;31062;49.678;24.560;2022-12-18T04:25:05;29.63;;;11.27;;
45326;SDS011;31062;49.678;24.560;2022-12-18T04:27:55;26.70;;;10.20;;
45326;SDS011;31062;49.678;24.560;2022-12-18T04:30:41;17.70;;;7.95;;
45326;SDS011;31062;49.678;24.560;2022-12-18T04:33:27;38.50;;;11.57;;
45326;SDS011;31062;49.678;24.560;2022-12-18T04:36:12;36.15;;;12.32;;
45326;SDS011;31062;49.678;24.560;2022-12-18T04:38:58;42.20;;;11.95;;
45326;SDS011;31062;49.678;24.560;2022-12-18T04:41:44;29.15;;;10.05;;
45326;SDS011;31062;49.678;24.560;2022-12-18T04:44:30;33.53;;;11.20;;
45326;SDS011;31062;49.678;24.560;2022-12-18T04:47:16;40.25;;;12.43;;
45326;SDS011;31062;49.678;24.560;2022-12-18T04:50:01;36.35;;;12.68;;
45326;SDS011;31062;49.678;24.560;2022-12-18T04:52:46;46.08;;;12.25;;
45326;SDS011;31062;49.678;24.560;2022-12-18T04:55:31;46.20;;;11.38;;
45326;SDS011;31062;49.678;24.560;2022-12-18T04:58:17;33.97;;;12.63;;
45326;SDS011;31062;49.678;24.560;2022-12-18T05:01:02;43.80;;;12.38;;
45326;SDS011;31062;49.678;24.560;2022-12-18T05:03:48;31.58;;;9.73;;
45326;SDS011;31062;49.678;24.560;2022-12-18T05:06:36;20.88;;;7.25;;
45326;SDS011;31062;49.678;24.560;2022-12-18T05:09:21;20.70;;;7.28;;
45326;SDS011;31062;49.678;24.560;2022-12-18T05:12:08;21.02;;;8.00;;
45326;SDS011;31062;49.678;24.560;2022-12-18T05:14:53;22.50;;;9.32;;
45326;SDS011;31062;49.678;24.560;2022-12-18T05:17:38;24.25;;;7.93;;
45326;SDS011;31062;49.678;24.560;2022-12-18T05:20:24;25.35;;;8.70;;
45326;SDS011;31062;49.678;24.560;2022-12-18T05:23:11;30.20;;;9.80;;
45326;SDS011;31062;49.678;24.560;2022-12-18T05:25:58;39.85;;;12.68;;
45326;SDS011;31062;49.678;24.560;2022-12-18T05:28:45;35.72;;;12.50;;
45326;SDS011;31062;49.678;24.560;2022-12-18T05:31:31;35.42;;;12.13;;
45326;SDS011;31062;49.678;24.560;2022-12-18T05:34:23;37.90;;;13.05;;
45326;SDS011;31062;49.678;24.560;2022-12-18T05:37:09;24.10;;;10.48;;
45326;SDS011;31062;49.678;24.560;2022-12-18T05:39:54;20.13;;;8.77;;
45326;SDS011;31062;49.678;24.560;2022-12-18T05:42:40;35.75;;;13.45;;
45326;SDS011;31062;49.678;24.560;2022-12-18T05:45:25;37.55;;;12.90;;
45326;SDS011;31062;49.678;24.560;2022-12-18T05:48:11;31.77;;;12.82;;
45326;SDS011;31062;49.678;24.560;2022-12-18T05:51:02;36.80;;;12.52;;
45326;SDS011;31062;49.678;24.560;2022-12-18T05:56:35;40.00;;;13.88;;
45326;SDS011;31062;49.678;24.560;2022-12-18T05:59:21;22.85;;;10.15;;
45326;SDS011;31062;49.678;24.560;2022-12-18T06:02:06;48.90;;;14.18;;
45326;SDS011;31062;49.678;24.560;2022-12-18T06:04:52;42.30;;;14.40;;
45326;SDS011;31062;49.678;24.560;2022-12-18T06:07:37;40.50;;;12.88;;
45326;SDS011;31062;49.678;24.560;2022-12-18T06:10:23;35.28;;;12.90;;
45326;SDS011;31062;49.678;24.560;2022-12-18T06:13:08;42.08;;;15.13;;
45326;SDS011;31062;49.678;24.560;2022-12-18T06:15:54;24.58;;;9.60;;
45326;SDS011;31062;49.678;24.560;2022-12-18T06:18:40;42.10;;;12.10;;
45326;SDS011;31062;49.678;24.560;2022-12-18T06:21:26;35.45;;;12.65;;
45326;SDS011;31062;49.678;24.560;2022-12-18T06:24:12;44.70;;;14.40;;
45326;SDS011;31062;49.678;24.560;2022-12-18T06:26:57;52.08;;;14.98;;
45326;SDS011;31062;49.678;24.560;2022-12-18T06:29:43;37.42;;;12.65;;
45326;SDS011;31062;49.678;24.560;2022-12-18T06:32:29;48.10;;;14.68;;
45326;SDS011;31062;49.678;24.560;2022-12-18T06:35:15;50.95;;;16.50;;
45326;SDS011;31062;49.678;24.560;2022-12-18T06:38:02;42.92;;;13.48;;
45326;SDS011;31062;49.678;24.560;2022-12-18T06:40:48;44.78;;;13.85;;
45326;SDS011;31062;49.678;24.560;2022-12-18T06:43:34;46.60;;;13.93;;
45326;SDS011;31062;49.678;24.560;2022-12-18T06:46:20;39.30;;;14.23;;
45326;SDS011;31062;49.678;24.560;2022-12-18T06:49:06;53.17;;;16.00;;
45326;SDS011;31062;49.678;24.560;2022-12-18T06:51:54;19.55;;;9.27;;
45326;SDS011;31062;49.678;24.560;2022-12-18T06:54:39;29.27;;;9.93;;
45326;SDS011;31062;49.678;24.560;2022-12-18T06:57:26;30.25;;;11.13;;
45326;SDS011;31062;49.678;24.560;2022-12-18T07:00:11;29.17;;;11.77;;
45326;SDS011;31062;49.678;24.560;2022-12-18T07:02:58;30.27;;;11.25;;
45326;SDS011;31062;49.678;24.560;2022-12-18T07:05:44;37.00;;;11.23;;
45326;SDS011;31062;49.678;24.560;2022-12-18T07:08:30;23.30;;;9.90;;
45326;SDS011;31062;49.678;24.560;2022-12-18T07:11:16;27.23;;;11.73;;
45326;SDS011;31062;49.678;24.560;2022-12-18T07:14:03;22.73;;;7.03;;
45326;SDS011;31062;49.678;24.560;2022-12-18T07:16:49;26.00;;;11.48;;
45326;SDS011;31062;49.678;24.560;2022-12-18T07:19:34;47.47;;;18.15;;
45326;SDS011;31062;49.678;24.560;2022-12-18T07:22:19;23.75;;;11.38;;
45326;SDS011;31062;49.678;24.560;2022-12-18T07:25:05;32.05;;;11.52;;
45326;SDS011;31062;49.678;24.560;2022-12-18T07:27:52;37.20;;;13.23;;
45326;SDS011;31062;49.678;24.560;2022-12-18T07:30:38;26.15;;;10.63;;
45326;SDS011;31062;49.678;24.560;2022-12-18T07:33:23;27.02;;;10.75;;
45326;SDS011;31062;49.678;24.560;2022-12-18T07:36:09;12.65;;;5.53;;
45326;SDS011;31062;49.678;24.560;2022-12-18T07:38:55;19.98;;;8.88;;
45326;SDS011;31062;49.678;24.560;2022-12-18T07:41:41;19.33;;;6.97;;
45326;SDS011;31062;49.678;24.560;2022-12-18T07:44:47;12.57;;;6.85;;
45326;SDS011;31062;49.678;24.560;2022-12-18T07:47:35;13.15;;;6.68;;
45326;SDS011;31062;49.678;24.560;2022-12-18T07:50:21;21.02;;;8.57;;
45326;SDS011;31062;49.678;24.560;2022-12-18T07:53:07;12.98;;;7.75;;
45326;SDS011;31062;49.678;24.560;2022-12-18T07:55:58;14.88;;;6.82;;
45326;SDS011;31062;49.678;24.560;2022-12-18T07:59:05;17.77;;;7.15;;
45326;SDS011;31062;49.678;24.560;2022-12-18T08:01:51;20.13;;;7.47;;
45326;SDS011;31062;49.678;24.560;2022-12-18T08:04:37;17.63;;;6.38;;
45326;SDS011;31062;49.678;24.560;2022-12-18T08:07:23;7.72;;;4.85;;
45326;SDS011;31062;49.678;24.560;2022-12-18T08:10:13;14.18;;;5.10;;
45326;SDS011;31062;49.678;24.560;2022-12-18T08:12:58;12.35;;;5.95;;
45326;SDS011;31062;49.678;24.560;2022-12-18T08:15:59;23.42;;;8.52;;
45326;SDS011;31062;49.678;24.560;2022-12-18T08:18:51;22.17;;;9.60;;
45326;SDS011;31062;49.678;24.560;2022-12-18T08:21:37;12.13;;;6.55;;
45326;SDS011;31062;49.678;24.560;2022-12-18T08:24:27;19.55;;;8.75;;
45326;SDS011;31062;49.678;24.560;2022-12-18T08:27:15;14.55;;;7.65;;
45326;SDS011;31062;49.678;24.560;2022-12-18T08:30:17;19.67;;;8.87;;
45326;SDS011;31062;49.678;24.560;2022-12-18T08:33:04;19.95;;;8.90;;
45326;SDS011;31062;49.678;24.560;2022-12-18T08:35:51;18.25;;;7.82;;
45326;SDS011;31062;49.678;24.560;2022-12-18T08:38:36;21.15;;;9.30;;
45326;SDS011;31062;49.678;24.560;2022-12-18T08:41:23;23.90;;;10.13;;
45326;SDS011;31062;49.678;24.560;2022-12-18T08:44:08;25.23;;;9.32;;
45326;SDS011;31062;49.678;24.560;2022-12-18T08:47:14;28.38;;;10.75;;
45326;SDS011;31062;49.678;24.560;2022-12-18T08:50:00;22.00;;;9.75;;
45326;SDS011;31062;49.678;24.560;2022-12-18T08:52:46;25.27;;;9.27;;
45326;SDS011;31062;49.678;24.560;2022-12-18T08:55:32;17.58;;;8.55;;
45326;SDS011;31062;49.678;24.560;2022-12-18T08:58:21;23.95;;;9.18;;
45326;SDS011;31062;49.678;24.560;2022-12-18T09:01:22;25.02;;;8.85;;
45326;SDS011;31062;49.678;24.560;2022-12-18T09:04:13;27.83;;;10.27;;
45326;SDS011;31062;49.678;24.560;2022-12-18T09:06:59;27.63;;;9.68;;
45326;SDS011;31062;49.678;24.560;2022-12-18T09:09:45;22.88;;;8.10;;
45326;SDS011;31062;49.678;24.560;2022-12-18T09:12:30;29.67;;;8.95;;
45326;SDS011;31062;49.678;24.560;2022-12-18T09:15:17;21.13;;;8.20;;
45326;SDS011;31062;49.678;24.560;2022-12-18T09:18:02;29.40;;;9.73;;
45326;SDS011;31062;49.678;24.560;2022-12-18T09:20:48;31.20;;;11.27;;
45326;SDS011;31062;49.678;24.560;2022-12-18T09:23:35;22.23;;;9.68;;
45326;SDS011;31062;49.678;24.560;2022-12-18T09:26:21;31.88;;;11.07;;
45326;SDS011;31062;49.678;24.560;2022-12-18T09:29:07;33.08;;;11.80;;
45326;SDS011;31062;49.678;24.560;2022-12-18T09:31:54;32.50;;;12.00;;
45326;SDS011;31062;49.678;24.560;2022-12-18T09:34:40;37.65;;;15.52;;
45326;SDS011;31062;49.678;24.560;2022-12-18T09:37:27;32.28;;;12.60;;
45326;SDS011;31062;49.678;24.560;2022-12-18T09:40:14;22.75;;;10.88;;
45326;SDS011;31062;49.678;24.560;2022-12-18T09:43:03;27.73;;;12.25;;
45326;SDS011;31062;49.678;24.560;2022-12-18T09:45:53;26.60;;;11.02;;
45326;SDS011;31062;49.678;24.560;2022-12-18T09:48:46;34.10;;;13.85;;
45326;SDS011;31062;49.678;24.560;2022-12-18T09:51:37;29.17;;;11.75;;
45326;SDS011;31062;49.678;24.560;2022-12-18T09:54:25;32.38;;;13.38;;
45326;SDS011;31062;49.678;24.560;2022-12-18T09:57:19;25.98;;;9.73;;
45326;SDS011;31062;49.678;24.560;2022-12-18T10:03:00;24.23;;;9.10;;
45326;SDS011;31062;49.678;24.560;2022-12-18T10:12:32;23.30;;;9.75;;
45326;SDS011;31062;49.678;24.560;2022-12-18T10:15:36;25.50;;;10.35;;
45326;SDS011;31062;49.678;24.560;2022-12-18T10:26:11;27.38;;;9.57;;
45326;SDS011;31062;49.678;24.560;2022-12-18T10:29:00;24.95;;;10.35;;
45326;SDS011;31062;49.678;24.560;2022-12-18T10:31:50;24.35;;;9.07;;
45326;SDS011;31062;49.678;24.560;2022-12-18T10:34:35;35.78;;;9.57;;
45326;SDS011;31062;49.678;24.560;2022-12-18T10:37:23;22.65;;;10.23;;
45326;SDS011;31062;49.678;24.560;2022-12-18T10:40:14;21.77;;;9.07;;
45326;SDS011;31062;49.678;24.560;2022-12-18T10:43:13;30.73;;;11.65;;
45326;SDS011;31062;49.678;24.560;2022-12-18T10:48:55;33.22;;;11.05;;
45326;SDS011;31062;49.678;24.560;2022-12-18T10:51:43;28.80;;;12.85;;
45326;SDS011;31062;49.678;24.560;2022-12-18T10:54:30;27.95;;;11.45;;
45326;SDS011;31062;49.678;24.560;2022-12-18T11:00:28;22.95;;;10.05;;
45326;SDS011;31062;49.678;24.560;2022-12-18T11:06:26;21.83;;;9.82;;
45326;SDS011;31062;49.678;24.560;2022-12-18T11:09:20;25.10;;;10.38;;
45326;SDS011;31062;49.678;24.560;2022-12-18T11:15:04;29.15;;;12.80;;
45326;SDS011;31062;49.678;24.560;2022-12-18T11:17:50;26.75;;;11.68;;
45326;SDS011;31062;49.678;24.560;2022-12-18T11:20:38;31.60;;;13.02;;
45326;SDS011;31062;49.678;24.560;2022-12-18T11:23:24;27.00;;;11.77;;
45326;SDS011;31062;49.678;24.560;2022-12-18T11:26:11;31.20;;;11.32;;
45326;SDS011;31062;49.678;24.560;2022-12-18T11:29:10;24.55;;;10.93;;
45326;SDS011;31062;49.678;24.560;2022-12-18T11:35:32;28.60;;;12.05;;
45326;SDS011;31062;49.678;24.560;2022-12-18T11:38:24;27.70;;;11.77;;
45326;SDS011;31062;49.678;24.560;2022-12-18T11:41:15;28.75;;;11.20;;
45326;SDS011;31062;49.678;24.560;2022-12-18T11:44:03;22.60;;;11.05;;
45326;SDS011;31062;49.678;24.560;2022-12-18T11:47:00;30.05;;;10.02;;
45326;SDS011;31062;49.678;24.560;2022-12-18T11:49:54;26.73;;;10.50;;
45326;SDS011;31062;49.678;24.560;2022-12-18T11:52:47;19.98;;;10.10;;
45326;SDS011;31062;49.678;24.560;2022-12-18T12:02:15;21.88;;;11.52;;
45326;SDS011;31062;49.678;24.560;2022-12-18T12:08:32;18.13;;;9.50;;
45326;SDS011;31062;49.678;24.560;2022-12-18T12:12:03;29.45;;;11.40;;
45326;SDS011;31062;49.678;24.560;2022-12-18T12:18:41;26.15;;;10.20;;
45326;SDS011;31062;49.678;24.560;2022-12-18T12:40:26;39.45;;;17.17;;
45326;SDS011;31062;49.678;24.560;2022-12-18T12:46:19;28.48;;;11.63;;
45326;SDS011;31062;49.678;24.560;2022-12-18T12:49:12;18.77;;;8.65;;
45326;SDS011;31062;49.678;24.560;2022-12-18T12:54:57;13.77;;;8.50;;
45326;SDS011;31062;49.678;24.560;2022-12-18T13:07:05;20.42;;;9.52;;
45326;SDS011;31062;49.678;24.560;2022-12-18T13:10:22;16.50;;;6.95;;
45326;SDS011;31062;49.678;24.560;2022-12-18T13:13:12;20.38;;;9.02;;
45326;SDS011;31062;49.678;24.560;2022-12-18T13:18:54;20.90;;;8.90;;
45326;SDS011;31062;49.678;24.560;2022-12-18T13:21:44;21.83;;;8.27;;
45326;SDS011;31062;49.678;24.560;2022-12-18T13:24:40;19.95;;;8.15;;
45326;SDS011;31062;49.678;24.560;2022-12-18T13:45:37;21.67;;;9.75;;
45326;SDS011;31062;49.678;24.560;2022-12-18T13:48:27;24.13;;;10.10;;
45326;SDS011;31062;49.678;24.560;2022-12-18T13:51:16;19.55;;;6.80;;
45326;SDS011;31062;49.678;24.560;2022-12-18T14:00:25;17.83;;;8.35;;
45326;SDS011;31062;49.678;24.560;2022-12-18T14:03:16;23.25;;;10.55;;
45326;SDS011;31062;49.678;24.560;2022-12-18T14:06:08;26.55;;;9.98;;
45326;SDS011;31062;49.678;24.560;2022-12-18T14:08:59;27.15;;;10.68;;
45326;SDS011;31062;49.678;24.560;2022-12-18T14:11:46;27.98;;;10.63;;
45326;SDS011;31062;49.678;24.560;2022-12-18T14:14:35;18.45;;;9.10;;
45326;SDS011;31062;49.678;24.560;2022-12-18T14:17:21;23.13;;;9.80;;
45326;SDS011;31062;49.678;24.560;2022-12-18T14:20:12;37.03;;;14.63;;
45326;SDS011;31062;49.678;24.560;2022-12-18T14:23:00;36.00;;;17.50;;
45326;SDS011;31062;49.678;24.560;2022-12-18T14:25:46;32.90;;;15.73;;
45326;SDS011;31062;49.678;24.560;2022-12-18T14:28:32;28.15;;;13.65;;
45326;SDS011;31062;49.678;24.560;2022-12-18T14:31:24;21.23;;;11.23;;
45326;SDS011;31062;49.678;24.560;2022-12-18T14:34:15;20.70;;;10.73;;
45326;SDS011;31062;49.678;24.560;2022-12-18T14:37:14;20.40;;;10.23;;
45326;SDS011;31062;49.678;24.560;2022-12-18T14:41:32;34.22;;;13.77;;
45326;SDS011;31062;49.678;24.560;2022-12-18T14:44:27;20.73;;;10.40;;
45326;SDS011;31062;49.678;24.560;2022-12-18T14:47:33;20.02;;;8.88;;
45326;SDS011;31062;49.678;24.560;2022-12-18T14:50:19;22.83;;;11.60;;
45326;SDS011;31062;49.678;24.560;2022-12-18T14:53:05;19.60;;;10.18;;
45326;SDS011;31062;49.678;24.560;2022-12-18T14:55:51;20.77;;;10.13;;
45326;SDS011;31062;49.678;24.560;2022-12-18T14:58:36;19.70;;;9.63;;
45326;SDS011;31062;49.678;24.560;2022-12-18T15:01:24;18.98;;;9.52;;
45326;SDS011;31062;49.678;24.560;2022-12-18T15:04:26;13.93;;;7.95;;
45326;SDS011;31062;49.678;24.560;2022-12-18T15:07:19;16.17;;;7.82;;
45326;SDS011;31062;49.678;24.560;2022-12-18T15:15:44;14.98;;;8.30;;
45326;SDS011;31062;49.678;24.560;2022-12-18T15:18:31;23.23;;;7.75;;
45326;SDS011;31062;49.678;24.560;2022-12-18T15:21:20;16.48;;;7.65;;
45326;SDS011;31062;49.678;24.560;2022-12-18T15:24:13;19.77;;;8.40;;
45326;SDS011;31062;49.678;24.560;2022-12-18T15:27:03;15.25;;;7.80;;
45326;SDS011;31062;49.678;24.560;2022-12-18T15:33:25;10.77;;;5.63;;
45326;SDS011;31062;49.678;24.560;2022-12-18T15:36:15;11.63;;;6.50;;
45326;SDS011;31062;49.678;24.560;2022-12-18T15:39:13;14.55;;;7.07;;
45326;SDS011;31062;49.678;24.560;2022-12-18T15:42:00;10.98;;;5.30;;
45326;SDS011;31062;49.678;24.560;2022-12-18T15:45:07;15.52;;;7.78;;
45326;SDS011;31062;49.678;24.560;2022-12-18T15:50:49;14.68;;;7.03;;
45326;SDS011;31062;49.678;24.560;2022-12-18T15:53:37;23.02;;;10.50;;
45326;SDS011;31062;49.678;24.560;2022-12-18T15:56:25;16.70;;;9.57;;
45326;SDS011;31062;49.678;24.560;2022-12-18T15:59:29;22.83;;;10.45;;
45326;SDS011;31062;49.678;24.560;2022-12-18T16:02:16;27.60;;;11.50;;
45326;SDS011;31062;49.678;24.560;2022-12-18T16:05:05;22.00;;;11.25;;
45326;SDS011;31062;49.678;24.560;2022-12-18T16:07:59;21.73;;;9.57;;
45326;SDS011;31062;49.678;24.560;2022-12-18T16:10:46;25.38;;;9.50;;
45326;SDS011;31062;49.678;24.560;2022-12-18T16:13:32;17.35;;;9.82;;
45326;SDS011;31062;49.678;24.560;2022-12-18T16:16:18;21.98;;;9.18;;
45326;SDS011;31062;49.678;24.560;2022-12-18T16:19:04;19.33;;;8.35;;
45326;SDS011;31062;49.678;24.560;2022-12-18T16:21:50;17.30;;;8.55;;
45326;SDS011;31062;49.678;24.560;2022-12-18T16:24:36;15.00;;;7.50;;
45326;SDS011;31062;49.678;24.560;2022-12-18T16:27:22;20.30;;;9.32;;
45326;SDS011;31062;49.678;24.560;2022-12-18T16:30:16;20.92;;;9.57;;
45326;SDS011;31062;49.678;24.560;2022-12-18T16:33:03;18.77;;;8.35;;
45326;SDS011;31062;49.678;24.560;2022-12-18T16:35:52;27.13;;;10.23;;
45326;SDS011;31062;49.678;24.560;2022-12-18T16:38:38;21.48;;;9.15;;
45326;SDS011;31062;49.678;24.560;2022-12-18T16:41:24;35.90;;;13.38;;
45326;SDS011;31062;49.678;24.560;2022-12-18T16:44:18;27.13;;;10.63;;
45326;SDS011;31062;49.678;24.560;2022-12-18T16:47:05;30.98;;;12.93;;
45326;SDS011;31062;49.678;24.560;2022-12-18T16:49:53;31.90;;;11.60;;
45326;SDS011;31062;49.678;24.560;2022-12-18T16:52:39;38.05;;;13.65;;
45326;SDS011;31062;49.678;24.560;2022-12-18T16:55:25;33.60;;;12.57;;
45326;SDS011;31062;49.678;24.560;2022-12-18T16:58:10;28.42;;;11.00;;
45326;SDS011;31062;49.678;24.560;2022-12-18T17:00:56;25.25;;;10.60;;
45326;SDS011;31062;49.678;24.560;2022-12-18T17:03:42;30.50;;;11.93;;
45326;SDS011;31062;49.678;24.560;2022-12-18T17:06:32;38.13;;;13.25;;
45326;SDS011;31062;49.678;24.560;2022-12-18T17:09:19;34.40;;;14.63;;
45326;SDS011;31062;49.678;24.560;2022-12-18T17:12:10;36.83;;;14.73;;
45326;SDS011;31062;49.678;24.560;2022-12-18T17:14:56;35.03;;;12.95;;
45326;SDS011;31062;49.678;24.560;2022-12-18T17:17:51;27.75;;;10.55;;
45326;SDS011;31062;49.678;24.560;2022-12-18T17:20:39;28.67;;;11.55;;
45326;SDS011;31062;49.678;24.560;2022-12-18T17:23:26;39.80;;;12.63;;
45326;SDS011;31062;49.678;24.560;2022-12-18T17:26:12;18.45;;;7.57;;
45326;SDS011;31062;49.678;24.560;2022-12-18T17:28:58;26.38;;;8.88;;
45326;SDS011;31062;49.678;24.560;2022-12-18T17:31:45;22.30;;;10.75;;
45326;SDS011;31062;49.678;24.560;2022-12-18T17:34:32;15.63;;;7.18;;
45326;SDS011;31062;49.678;24.560;2022-12-18T17:37:18;15.77;;;6.78;;
45326;SDS011;31062;49.678;24.560;2022-12-18T17:40:03;12.45;;;7.75;;
45326;SDS011;31062;49.678;24.560;2022-12-18T17:42:51;15.95;;;7.65;;
45326;SDS011;31062;49.678;24.560;2022-12-18T17:45:39;17.20;;;8.10;;
45326;SDS011;31062;49.678;24.560;2022-12-18T17:48:25;26.45;;;9.60;;
45326;SDS011;31062;49.678;24.560;2022-12-18T17:51:12;20.60;;;8.48;;
45326;SDS011;31062;49.678;24.560;2022-12-18T17:53:59;23.55;;;8.30;;
45326;SDS011;31062;49.678;24.560;2022-12-18T17:56:46;23.73;;;7.53;;
45326;SDS011;31062;49.678;24.560;2022-12-18T17:59:33;24.38;;;8.20;;
45326;SDS011;31062;49.678;24.560;2022-12-18T18:02:19;16.65;;;7.60;;
45326;SDS011;31062;49.678;24.560;2022-12-18T18:05:05;19.42;;;8.43;;
45326;SDS011;31062;49.678;24.560;2022-12-18T18:07:51;23.38;;;9.40;;
45326;SDS011;31062;49.678;24.560;2022-12-18T18:10:38;32.50;;;8.52;;
45326;SDS011;31062;49.678;24.560;2022-12-18T18:13:25;19.13;;;6.65;;
45326;SDS011;31062;49.678;24.560;2022-12-18T18:16:50;17.10;;;7.72;;
45326;SDS011;31062;49.678;24.560;2022-12-18T18:19:37;19.42;;;7.10;;
45326;SDS011;31062;49.678;24.560;2022-12-18T18:22:25;13.88;;;7.45;;
45326;SDS011;31062;49.678;24.560;2022-12-18T18:25:11;23.73;;;8.27;;
45326;SDS011;31062;49.678;24.560;2022-12-18T18:27:57;14.38;;;7.07;;
45326;SDS011;31062;49.678;24.560;2022-12-18T18:30:45;18.25;;;7.20;;
45326;SDS011;31062;49.678;24.560;2022-12-18T18:33:35;18.23;;;7.45;;
45326;SDS011;31062;49.678;24.560;2022-12-18T18:36:21;18.38;;;7.68;;
45326;SDS011;31062;49.678;24.560;2022-12-18T18:39:08;18.80;;;8.73;;
45326;SDS011;31062;49.678;24.560;2022-12-18T18:41:55;15.05;;;7.28;;
45326;SDS011;31062;49.678;24.560;2022-12-18T18:44:40;20.52;;;8.50;;
45326;SDS011;31062;49.678;24.560;2022-12-18T18:47:32;17.85;;;8.38;;
45326;SDS011;31062;49.678;24.560;2022-12-18T18:50:18;20.02;;;7.63;;
45326;SDS011;31062;49.678;24.560;2022-12-18T18:53:04;15.20;;;7.78;;
45326;SDS011;31062;49.678;24.560;2022-12-18T18:55:49;26.65;;;10.82;;
45326;SDS011;31062;49.678;24.560;2022-12-18T18:58:55;32.83;;;11.40;;
45326;SDS011;31062;49.678;24.560;2022-12-18T19:01:41;23.73;;;10.52;;
45326;SDS011;31062;49.678;24.560;2022-12-18T19:04:27;28.00;;;11.38;;